Flight Track Log - Related Links

Times and Time Zones

All times are in EDT time to prevent confusion due to time zone crossing. See the AAL963 flight status page for this flight to view local times or setup timezone preferences in your user account.

Time Position Orientation Groundspeed Altitude Reporting Facility
EDT Latitude Longitude Course Direction KTS MPH feet Rate Location/Type
Fri 09:48:03 PM 32.9330 -97.0540 346° North 181 208 1,800  Level FlightAware ADS-B
Fri 09:48:33 PM 32.9580 -97.0610 347° North 202 232 2,200 764 Climbing FlightAware ADS-B
Fri 09:48:58 PM 32.9850 -97.0680 348° North 234 269 2,500 1,200 Climbing FlightAware ADS-B
Fri 09:49:28 PM 33.0140 -97.0800 341° North 241 277 3,300 1,964 Climbing FlightAware ADS-B
Fri 09:49:53 PM 33.0430 -97.0880 347° North 240 276 4,300 2,250 Climbing FlightAware ADS-B
Fri 09:50:08 PM 33.0590 -97.0950 340° North 242 278 4,800 1,800 Climbing FlightAware ADS-B
Fri 09:50:23 PM 33.0700 -97.1090 313° West 243 280 5,200 1,680 Climbing FlightAware ADS-B
Fri 09:50:33 PM 33.0750 -97.1210 296° West 247 284 5,500 1,950 Climbing FlightAware ADS-B
Fri 09:51:03 PM 33.0680 -97.1580 257° West 256 295 6,500 1,867 Climbing FlightAware ADS-B
Fri 09:51:18 PM 33.0570 -97.1720 227° Southwest 262 302 6,900 1,733 Climbing FlightAware ADS-B
Fri 09:51:48 PM 33.0270 -97.2020 220° Southwest 274 315 7,800 1,964 Climbing FlightAware ADS-B
Fri 09:52:13 PM 33.0040 -97.2250 220° Southwest 276 318 8,700 1,855 Climbing FlightAware ADS-B
Fri 09:52:43 PM 32.9660 -97.2450 204° Southwest 307 353 9,500 1,371 Climbing FlightAware ADS-B
Fri 09:53:23 PM 32.9080 -97.2340 171° South 342 394 10,300 1,129 Climbing FlightAware ADS-B
Fri 09:54:08 PM 32.8400 -97.1940 154° Southeast 378 435 11,100 1,059 Climbing FlightAware ADS-B
Fri 09:54:48 PM 32.7750 -97.1530 152° Southeast 412 474 11,800 1,341 Climbing FlightAware ADS-B
Fri 09:55:33 PM 32.6980 -97.1000 150° Southeast 434 499 13,000 1,694 Climbing FlightAware ADS-B
Fri 09:56:13 PM 32.6300 -97.0530 150° Southeast 451 519 14,200 1,950 Climbing FlightAware ADS-B
Fri 09:56:53 PM 32.5570 -97.0030 150° Southeast 454 522 15,600 1,906 Climbing FlightAware ADS-B
Fri 09:57:38 PM 32.4650 -96.9620 159° South 468 539 16,900 1,694 Climbing FlightAware ADS-B
Fri 09:58:18 PM 32.3790 -96.9260 161° South 482 555 18,000 2,025 Climbing FlightAware ADS-B
Fri 09:58:58 PM 32.2960 -96.8840 157° South 485 558 19,600 2,047 Climbing FlightAware ADS-B
Fri 09:59:43 PM 32.2020 -96.8380 158° South 492 566 20,900 2,000 Climbing FlightAware ADS-B
Fri 10:00:04 PM 32.1533 -96.8158 159° South 487 560 21,800 1,895 Climbing FlightAware ADS-B
Fri 10:00:40 PM 32.0743 -96.7824 160° South 497 572 22,700 1,565 Climbing FlightAware ADS-B
Fri 10:01:13 PM 32.0036 -96.7523 160° South 500 575 23,600 1,385 Climbing FlightAware ADS-B
Fri 10:01:45 PM 31.9327 -96.7212 160° South 513 590 24,200 871 Climbing FlightAware ADS-B
Fri 10:02:15 PM 31.8646 -96.6912 159° South 527 606 24,500 1,100 Climbing FlightAware ADS-B
Fri 10:02:45 PM 31.7957 -96.6604 159° South 532 612 25,300 1,469 Climbing FlightAware ADS-B
Fri 10:03:04 PM 31.7517 -96.6408 159° South 533 613 25,700 1,400 Climbing FlightAware ADS-B
Fri 10:03:15 PM 31.7263 -96.6294 159° South 534 615 26,000 1,636 Climbing FlightAware ADS-B
Fri 10:03:37 PM 31.6753 -96.6068 159° South 533 613 26,600 1,500 Climbing FlightAware ADS-B
Fri 10:03:47 PM 31.6528 -96.5969 159° South 534 615 26,800 1,161 Climbing FlightAware ADS-B
Fri 10:04:08 PM 31.6041 -96.5753 159° South 537 618 27,200 1,125 Climbing FlightAware ADS-B
Fri 10:04:19 PM 31.5790 -96.5642 159° South 538 619 27,400 1,161 Climbing FlightAware ADS-B
Fri 10:04:39 PM 31.5332 -96.5439 159° South 540 621 27,800 1,200 Climbing FlightAware ADS-B
Fri 10:04:49 PM 31.5086 -96.5331 159° South 541 623 28,000 1,200 Climbing FlightAware ADS-B
Fri 10:05:09 PM 31.4613 -96.5121 159° South 542 624 28,400 1,273 Climbing FlightAware ADS-B
Fri 10:05:22 PM 31.4311 -96.4988 159° South 543 625 28,700 1,200 Climbing FlightAware ADS-B
Fri 10:05:39 PM 31.3908 -96.4810 159° South 545 627 29,000 1,000 Climbing FlightAware ADS-B
Fri 10:05:52 PM 31.3598 -96.4674 159° South 546 628 29,200 1,000 Climbing FlightAware ADS-B
Fri 10:06:09 PM 31.3187 -96.4494 159° South 548 631 29,500 968 Climbing FlightAware ADS-B
Fri 10:06:23 PM 31.2866 -96.4352 159° South 549 632 29,700 1,161 Climbing FlightAware ADS-B
Fri 10:06:40 PM 31.2467 -96.4177 159° South 548 631 30,100 1,500 Climbing FlightAware ADS-B
Fri 10:06:47 PM 31.2304 -96.4103 159° South 548 631 30,300 2,000 Climbing FlightAware ADS-B
Fri 10:06:49 PM 31.2254 -96.4078 157° South 548 631 30,400 2,000 Climbing FlightAware ADS-B
Fri 10:06:56 PM 31.2082 -96.3981 154° Southeast 552 635 30,600 1,846 Climbing FlightAware ADS-B
Fri 10:07:02 PM 31.1958 -96.3899 151° Southeast 552 635 30,800 1,333 Climbing FlightAware ADS-B
Fri 10:07:05 PM 31.1890 -96.3850 148° Southeast 553 636 30,800 1,200 Level FlightAware ADS-B
Fri 10:07:12 PM 31.1743 -96.3731 145° Southeast 555 639 31,000 2,250 Climbing FlightAware ADS-B
Fri 10:07:13 PM 31.1714 -96.3706 144° Southeast 555 639 31,100 1,333 Climbing FlightAware ADS-B
Fri 10:07:21 PM 31.1571 -96.3569 141° Southeast 557 641 31,200 1,333 Climbing FlightAware ADS-B
Fri 10:07:22 PM 31.1534 -96.3531 139° Southeast 557 641 31,300 1,333 Climbing FlightAware ADS-B
Fri 10:07:30 PM 31.1390 -96.3363 135° Southeast 560 644 31,400 1,000 Climbing FlightAware ADS-B
Fri 10:07:34 PM 31.1327 -96.3282 132° Southeast 560 644 31,500 857 Climbing FlightAware ADS-B
Fri 10:07:37 PM 31.1271 -96.3203 130° Southeast 562 647 31,500 900 Level FlightAware ADS-B
Fri 10:07:54 PM 31.1010 -96.2787 126° Southeast 562 647 31,800 1,149 Climbing FlightAware ADS-B
Fri 10:08:24 PM 31.0520 -96.2090 129° Southeast 559 643 32,400 1,200 Climbing FlightAware ADS-B
Fri 10:08:54 PM 31.0001 -96.1424 132° Southeast 555 639 33,000 1,161 Climbing FlightAware ADS-B
Fri 10:08:55 PM 30.9984 -96.1402 132° Southeast 554 638 33,000 1,161 Level FlightAware ADS-B
Fri 10:09:25 PM 30.9466 -96.0771 134° Southeast 552 635 33,600 1,161 Climbing FlightAware ADS-B
Fri 10:09:26 PM 30.9450 -96.0753 136° Southeast 552 635 33,600 1,000 Level FlightAware ADS-B
Fri 10:09:55 PM 30.8924 -96.0130 135° Southeast 549 632 34,100 1,000 Climbing FlightAware ADS-B
Fri 10:09:56 PM 30.8906 -96.0109 135° Southeast 549 632 34,100 968 Level FlightAware ADS-B
Fri 10:10:26 PM 30.8379 -95.9494 135° Southeast 547 629 34,600 900 Climbing FlightAware ADS-B
Fri 10:10:56 PM 30.7839 -95.8866 135° Southeast 544 626 35,000 400 Climbing FlightAware ADS-B
Fri 10:11:26 PM 30.7295 -95.8240 135° Southeast 542 624 35,000  Level FlightAware ADS-B
Fri 10:11:27 PM 30.7279 -95.8222 136° Southeast 542 624 35,000  Level FlightAware ADS-B
Fri 10:11:56 PM 30.6759 -95.7627 135° Southeast 541 623 35,000  Level FlightAware ADS-B
Fri 10:11:59 PM 30.6716 -95.7578 136° Southeast 541 623 35,000  Level FlightAware ADS-B
Fri 10:12:27 PM 30.6217 -95.7009 136° Southeast 540 621 35,000  Level FlightAware ADS-B
Fri 10:12:29 PM 30.6180 -95.6967 136° Southeast 540 621 35,000  Level FlightAware ADS-B
Fri 10:12:59 PM 30.5639 -95.6351 136° Southeast 539 620 35,000  Level FlightAware ADS-B
Fri 10:13:00 PM 30.5628 -95.6339 137° Southeast 539 620 35,000  Level FlightAware ADS-B
Fri 10:13:30 PM 30.5098 -95.5737 136° Southeast 538 619 35,000  Level FlightAware ADS-B
Fri 10:14:02 PM 30.4528 -95.5092 136° Southeast 539 620 35,000  Level FlightAware ADS-B
Fri 10:14:06 PM 30.4449 -95.5003 136° Southeast 539 620 35,000  Level FlightAware ADS-B
Fri 10:14:34 PM 30.3947 -95.4434 136° Southeast 538 619 35,000  Level FlightAware ADS-B
Fri 10:14:37 PM 30.3901 -95.4382 136° Southeast 538 619 35,000  Level FlightAware ADS-B
Fri 10:15:05 PM 30.3406 -95.3822 136° Southeast 538 619 35,000  Level FlightAware ADS-B
Fri 10:15:08 PM 30.3344 -95.3752 136° Southeast 538 619 35,000  Level FlightAware ADS-B
Fri 10:15:35 PM 30.2861 -95.3207 136° Southeast 538 619 35,000  Level FlightAware ADS-B
Fri 10:15:38 PM 30.2810 -95.3149 136° Southeast 538 619 35,000  Level FlightAware ADS-B
Fri 10:16:05 PM 30.2327 -95.2605 136° Southeast 537 618 35,000  Level FlightAware ADS-B
Fri 10:16:09 PM 30.2269 -95.2539 135° Southeast 537 618 35,000  Level FlightAware ADS-B
Fri 10:16:36 PM 30.1785 -95.1994 136° Southeast 537 618 35,000  Level FlightAware ADS-B
Fri 10:16:39 PM 30.1730 -95.1932 136° Southeast 537 618 35,000  Level FlightAware ADS-B
Fri 10:17:07 PM 30.1235 -95.1376 136° Southeast 538 619 35,000  Level FlightAware ADS-B
Fri 10:17:09 PM 30.1195 -95.1332 136° Southeast 538 619 35,000  Level FlightAware ADS-B
Fri 10:17:37 PM 30.0686 -95.0761 136° Southeast 539 620 35,000  Level FlightAware ADS-B
Fri 10:17:39 PM 30.0651 -95.0721 135° Southeast 539 620 35,000  Level FlightAware ADS-B
Fri 10:18:08 PM 30.0143 -95.0152 136° Southeast 539 620 35,000  Level FlightAware ADS-B
Fri 10:18:10 PM 30.0107 -95.0112 136° Southeast 540 621 35,000  Level FlightAware ADS-B
Fri 10:18:38 PM 29.9595 -94.9539 136° Southeast 540 621 35,000  Level FlightAware ADS-B
Fri 10:18:40 PM 29.9561 -94.9501 136° Southeast 540 621 35,000  Level FlightAware ADS-B
Fri 10:19:10 PM 29.9027 -94.8905 136° Southeast 541 623 35,000  Level FlightAware ADS-B
Fri 10:19:40 PM 29.8482 -94.8297 136° Southeast 542 624 35,000  Level FlightAware ADS-B
Fri 10:19:41 PM 29.8474 -94.8289 139° Southeast 542 624 35,000  Level FlightAware ADS-B
Fri 10:20:10 PM 29.7939 -94.7692 136° Southeast 543 625 35,000  Level FlightAware ADS-B
Fri 10:20:11 PM 29.7930 -94.7682 136° Southeast 543 625 35,000  Level FlightAware ADS-B
Fri 10:20:41 PM 29.7385 -94.7077 136° Southeast 545 627 35,000  Level FlightAware ADS-B
Fri 10:21:11 PM 29.6838 -94.6470 136° Southeast 546 628 35,000  Level FlightAware ADS-B
Fri 10:21:42 PM 29.6278 -94.5849 136° Southeast 548 631 35,000  Level FlightAware ADS-B
Fri 10:22:12 PM 29.5722 -94.5235 136° Southeast 549 632 35,000  Level FlightAware ADS-B
Fri 10:22:42 PM 29.5173 -94.4628 136° Southeast 549 632 35,000  Level FlightAware ADS-B
Fri 10:23:04 PM 29.4777 -94.4193 136° Southeast 549 632 35,000  Level FlightAware ADS-B
Fri 10:23:12 PM 29.4622 -94.4021 136° Southeast 550 633 35,000  Level FlightAware ADS-B
Fri 10:23:44 PM 29.4040 -94.3381 136° Southeast 551 634 35,000  Level FlightAware ADS-B
Fri 10:24:14 PM 29.3487 -94.2771 136° Southeast 552 635 35,000  Level FlightAware ADS-B
Fri 10:24:45 PM 29.2929 -94.2154 136° Southeast 552 635 35,000  Level FlightAware ADS-B
Fri 10:25:15 PM 29.2370 -94.1539 136° Southeast 552 635 35,000  Level FlightAware ADS-B
Fri 10:25:46 PM 29.1803 -94.0914 136° Southeast 553 636 35,000  Level FlightAware ADS-B
Fri 10:26:09 PM 29.1553 -94.0647 136° Southeast 551 634 35,000  Level Houston Center
Fri 10:27:10 PM 29.0450 -93.9411 136° Southeast 553 636 35,000  Level Houston Center
Fri 10:28:11 PM 28.9250 -93.8119 137° Southeast 551 634 35,000  Level Houston Center
Fri 10:29:12 PM 28.8222 -93.6992 136° Southeast 556 640 35,000  Level Houston Center
Fri 10:30:13 PM 28.7103 -93.5775 136° Southeast 557 641 35,000  Level Houston Center
Fri 10:31:14 PM 28.5742 -93.4314 137° Southeast 559 643 35,000  Level Houston Center
Fri 10:32:15 PM 28.4608 -93.3094 137° Southeast 561 646 35,000  Level Houston Center
Fri 10:33:16 PM 28.3628 -93.2031 136° Southeast 562 647 35,000 -49 Level Houston Center
Fri 10:34:17 PM 28.2497 -93.0811 136° Southeast 561 646 34,900  Descending Houston Center
Fri 10:35:18 PM 28.1139 -92.9356 137° Southeast 560 644 35,000 49 Climbing Houston Center
Fri 10:36:19 PM 28.0006 -92.8144 137° Southeast 560 644 35,000 -49 Level Houston Center
Fri 10:37:20 PM 27.8867 -92.6947 137° Southeast 560 644 34,900  Descending Houston Center
Fri 10:38:21 PM 27.7733 -92.5756 137° Southeast 560 644 35,000  Climbing Houston Center
Fri 10:39:22 PM 27.6594 -92.4569 137° Southeast 558 642 34,900  Descending Houston Center
Fri 10:40:23 PM 27.5472 -92.3381 137° Southeast 555 639 35,000 49 Climbing Houston Center
Fri 10:41:24 PM 27.4347 -92.2203 137° Southeast 554 638 35,000  Level Houston Center
Fri 10:42:25 PM 27.3231 -92.1044 137° Southeast 549 632 35,000 -49 Level Houston Center
Fri 10:43:26 PM 27.2108 -91.9869 137° Southeast 550 633 34,900 -49 Descending Houston Center
Fri 10:44:27 PM 27.0964 -91.8767 139° Southeast 548 631 34,900 49 Level Houston Center
Fri 10:45:28 PM 26.9722 -91.7822 146° Southeast 544 626 35,000 Climbing Houston Center
Fri 10:47:00 PM 26.8069 -91.6490 144° Southeast  Level FlightAware Approximate
Fri 10:54:00 PM 26.0498 -91.0470 145° Southeast  Level FlightAware Approximate
Fri 10:55:00 PM 25.9412 -90.9619 145° Southeast  Level FlightAware Approximate
Fri 10:56:00 PM 25.8326 -90.8769 145° Southeast  Level FlightAware Approximate
Fri 10:57:00 PM 25.7240 -90.7922 145° Southeast  Level FlightAware Approximate
Fri 10:58:00 PM 25.6153 -90.7075 145° Southeast  Level FlightAware Approximate
Fri 10:59:00 PM 25.5066 -90.6231 145° Southeast  Level FlightAware Approximate
Fri 11:00:00 PM 25.3978 -90.5387 145° Southeast  Level FlightAware Approximate
Fri 11:01:00 PM 25.2889 -90.4546 145° Southeast  Level FlightAware Approximate
Fri 11:02:00 PM 25.1801 -90.3706 145° Southeast  Level FlightAware Approximate
Fri 11:03:00 PM 25.0711 -90.2867 145° Southeast  Level FlightAware Approximate
Fri 11:04:00 PM 24.9622 -90.2030 145° Southeast  Level FlightAware Approximate
Fri 11:05:00 PM 24.8531 -90.1194 145° Southeast  Level FlightAware Approximate
Fri 11:06:00 PM 24.7441 -90.0360 145° Southeast  Level FlightAware Approximate
Fri 11:07:00 PM 24.6350 -89.9527 145° Southeast  Level FlightAware Approximate
Fri 11:08:00 PM 24.5258 -89.8696 145° Southeast  Level FlightAware Approximate
Fri 11:09:00 PM 24.4445 -89.7579 119° Southeast  Level FlightAware Approximate
Fri 11:10:00 PM 24.3790 -89.6310 120° Southeast  Level FlightAware Approximate
Fri 11:11:00 PM 24.3134 -89.5043 120° Southeast  Level FlightAware Approximate
Fri 11:12:00 PM 24.2478 -89.3777 120° Southeast  Level FlightAware Approximate
Fri 11:13:00 PM 24.1820 -89.2512 120° Southeast  Level FlightAware Approximate
Fri 11:14:00 PM 24.1161 -89.1249 120° Southeast  Level FlightAware Approximate
Fri 11:15:00 PM 24.0501 -88.9987 120° Southeast  Level FlightAware Approximate
Fri 11:16:00 PM 23.9852 -88.8719 119° Southeast  Level FlightAware Approximate
Fri 11:17:00 PM 23.9207 -88.7449 119° Southeast  Level FlightAware Approximate
Fri 11:18:00 PM 23.8560 -88.6181 119° Southeast  Level FlightAware Approximate
Fri 11:19:00 PM 23.7912 -88.4914 119° Southeast  Level FlightAware Approximate
Fri 11:20:00 PM 23.7263 -88.3648 119° Southeast  Level FlightAware Approximate
Fri 11:21:00 PM 23.6613 -88.2384 119° Southeast  Level FlightAware Approximate
Fri 11:22:00 PM 23.5962 -88.1121 119° Southeast  Level FlightAware Approximate
Fri 11:23:00 PM 23.5310 -87.9858 119° Southeast  Level FlightAware Approximate
Fri 11:24:00 PM 23.4658 -87.8598 119° Southeast  Level FlightAware Approximate
Fri 11:25:00 PM 23.4004 -87.7338 119° Southeast  Level FlightAware Approximate
Fri 11:26:00 PM 23.3349 -87.6080 120° Southeast  Level FlightAware Approximate
Fri 11:27:00 PM 23.2693 -87.4823 120° Southeast  Level FlightAware Approximate
Fri 11:28:00 PM 23.2036 -87.3567 120° Southeast  Level FlightAware Approximate
Fri 11:29:00 PM 23.1378 -87.2313 120° Southeast  Level FlightAware Approximate
Fri 11:30:00 PM 23.0719 -87.1059 120° Southeast  Level FlightAware Approximate
Fri 11:31:00 PM 23.0059 -86.9807 120° Southeast  Level FlightAware Approximate
Fri 11:32:00 PM 22.9398 -86.8557 120° Southeast  Level FlightAware Approximate
Fri 11:33:00 PM 22.8736 -86.7307 120° Southeast  Level FlightAware Approximate
Fri 11:34:00 PM 22.8073 -86.6059 120° Southeast  Level FlightAware Approximate
Fri 11:35:00 PM 22.7409 -86.4811 120° Southeast  Level FlightAware Approximate
Fri 11:36:00 PM 22.6745 -86.3565 120° Southeast  Level FlightAware Approximate
Fri 11:37:00 PM 22.6079 -86.2321 120° Southeast  Level FlightAware Approximate
Fri 11:38:00 PM 22.5412 -86.1077 120° Southeast  Level FlightAware Approximate
Fri 11:39:00 PM 22.4744 -85.9835 120° Southeast  Level FlightAware Approximate
Fri 11:40:00 PM 22.4074 -85.8595 120° Southeast  Level FlightAware Approximate
Fri 11:41:00 PM 22.3403 -85.7356 120° Southeast  Level FlightAware Approximate
Fri 11:42:00 PM 22.2731 -85.6118 120° Southeast  Level FlightAware Approximate
Fri 11:43:00 PM 22.2058 -85.4881 120° Southeast  Level FlightAware Approximate
Fri 11:44:00 PM 22.1384 -85.3646 120° Southeast  Level FlightAware Approximate
Fri 11:45:00 PM 22.0709 -85.2412 121° Southeast  Level FlightAware Approximate
Fri 11:46:00 PM 22.0033 -85.1179 121° Southeast  Level FlightAware Approximate
Fri 11:47:00 PM 21.9356 -84.9947 121° Southeast  Level FlightAware Approximate
Fri 11:48:00 PM 21.8678 -84.8716 121° Southeast  Level FlightAware Approximate
Fri 11:49:00 PM 21.8000 -84.7487 121° Southeast  Level FlightAware Approximate
Fri 11:50:00 PM 21.7320 -84.6258 121° Southeast  Level FlightAware Approximate
Fri 11:51:00 PM 21.6640 -84.5031 121° Southeast  Level FlightAware Approximate
Fri 11:52:00 PM 21.5959 -84.3805 121° Southeast  Level FlightAware Approximate
Fri 11:53:00 PM 21.5277 -84.2580 121° Southeast  Level FlightAware Approximate
Fri 11:54:00 PM 21.4593 -84.1357 121° Southeast  Level FlightAware Approximate
Fri 11:55:00 PM 21.3909 -84.0134 121° Southeast  Level FlightAware Approximate
Fri 11:56:00 PM 21.3225 -83.8913 121° Southeast  Level FlightAware Approximate
Fri 11:57:00 PM 21.2539 -83.7692 121° Southeast  Level FlightAware Approximate
Fri 11:58:00 PM 21.1852 -83.6473 121° Southeast  Level FlightAware Approximate
Fri 11:59:00 PM 21.1165 -83.5255 121° Southeast  Level FlightAware Approximate
Sat 12:00:00 AM 21.0476 -83.4038 121° Southeast  Level FlightAware Approximate
Sat 12:01:00 AM 20.9787 -83.2822 121° Southeast  Level FlightAware Approximate
Sat 12:02:00 AM 20.9097 -83.1608 121° Southeast  Level FlightAware Approximate
Sat 12:03:00 AM 20.8406 -83.0394 121° Southeast  Level FlightAware Approximate
Sat 12:04:00 AM 20.7714 -82.9182 121° Southeast  Level FlightAware Approximate
Sat 12:05:00 AM 20.7022 -82.7971 121° Southeast  Level FlightAware Approximate
Sat 12:06:00 AM 20.6328 -82.6760 121° Southeast  Level FlightAware Approximate
Sat 12:07:00 AM 20.5634 -82.5551 122° Southeast  Level FlightAware Approximate
Sat 12:08:00 AM 20.4939 -82.4343 122° Southeast  Level FlightAware Approximate
Sat 12:09:00 AM 20.4243 -82.3136 122° Southeast  Level FlightAware Approximate
Sat 12:10:00 AM 20.3546 -82.1931 122° Southeast  Level FlightAware Approximate
Sat 12:11:00 AM 20.2848 -82.0726 122° Southeast  Level FlightAware Approximate
Sat 12:12:00 AM 20.2150 -81.9522 122° Southeast  Level FlightAware Approximate
Sat 12:13:00 AM 20.1450 -81.8320 122° Southeast  Level FlightAware Approximate
Sat 12:14:00 AM 20.0750 -81.7118 122° Southeast  Level FlightAware Approximate
Sat 12:15:00 AM 20.0049 -81.5918 122° Southeast  Level FlightAware Approximate
Sat 12:16:00 AM 19.9345 -81.4721 122° Southeast  Level FlightAware Approximate
Sat 12:17:00 AM 19.8639 -81.3524 122° Southeast  Level FlightAware Approximate
Sat 12:18:00 AM 19.7933 -81.2329 122° Southeast  Level FlightAware Approximate
Sat 12:19:00 AM 19.7226 -81.1135 122° Southeast  Level FlightAware Approximate
Sat 12:20:00 AM 19.6518 -80.9942 122° Southeast  Level FlightAware Approximate
Sat 12:21:00 AM 19.5809 -80.8750 122° Southeast  Level FlightAware Approximate
Sat 12:22:00 AM 19.5099 -80.7559 122° Southeast  Level FlightAware Approximate
Sat 12:23:00 AM 19.4389 -80.6369 122° Southeast  Level FlightAware Approximate
Sat 12:24:00 AM 19.3678 -80.5181 122° Southeast  Level FlightAware Approximate
Sat 12:25:00 AM 19.2966 -80.3993 122° Southeast  Level FlightAware Approximate
Sat 12:26:00 AM 19.2253 -80.2806 122° Southeast  Level FlightAware Approximate
Sat 12:27:00 AM 19.1540 -80.1620 122° Southeast  Level FlightAware Approximate
Sat 12:28:00 AM 19.0826 -80.0435 123° Southeast  Level FlightAware Approximate
Sat 12:29:00 AM 19.0111 -79.9252 123° Southeast  Level FlightAware Approximate
Sat 12:30:00 AM 18.9395 -79.8069 123° Southeast  Level FlightAware Approximate
Sat 12:31:00 AM 18.8678 -79.6887 123° Southeast  Level FlightAware Approximate
Sat 12:32:00 AM 18.7961 -79.5707 123° Southeast  Level FlightAware Approximate
Sat 12:33:00 AM 18.7243 -79.4527 123° Southeast  Level FlightAware Approximate
Sat 12:34:00 AM 18.6525 -79.3348 123° Southeast  Level FlightAware Approximate
Sat 12:35:00 AM 18.5805 -79.2171 123° Southeast  Level FlightAware Approximate
Sat 12:36:00 AM 18.5085 -79.0994 123° Southeast  Level FlightAware Approximate
Sat 12:37:00 AM 18.4364 -78.9818 123° Southeast  Level FlightAware Approximate
Sat 12:38:00 AM 18.3643 -78.8644 123° Southeast  Level FlightAware Approximate
Sat 12:39:00 AM 18.2920 -78.7470 123° Southeast  Level FlightAware Approximate
Sat 12:40:00 AM 18.2197 -78.6297 123° Southeast  Level FlightAware Approximate
Sat 12:41:00 AM 18.1474 -78.5126 123° Southeast  Level FlightAware Approximate
Sat 12:42:00 AM 18.0749 -78.3955 123° Southeast  Level FlightAware Approximate
Sat 12:43:00 AM 18.0024 -78.2785 123° Southeast  Level FlightAware Approximate
Sat 12:44:00 AM 17.9298 -78.1616 123° Southeast  Level FlightAware Approximate
Sat 12:45:00 AM 17.8572 -78.0448 123° Southeast  Level FlightAware Approximate
Sat 12:46:00 AM 17.7555 -77.9562 142° Southeast  Level FlightAware Approximate
Sat 12:47:00 AM 17.6506 -77.8707 142° Southeast  Level FlightAware Approximate
Sat 12:48:00 AM 17.5457 -77.7853 142° Southeast  Level FlightAware Approximate
Sat 12:49:00 AM 17.4408 -77.7000 142° Southeast  Level FlightAware Approximate
Sat 12:50:00 AM 17.3358 -77.6148 142° Southeast  Level FlightAware Approximate
Sat 12:51:00 AM 17.2308 -77.5297 142° Southeast  Level FlightAware Approximate
Sat 12:52:00 AM 17.1257 -77.4447 142° Southeast  Level FlightAware Approximate
Sat 12:53:00 AM 17.0206 -77.3598 142° Southeast  Level FlightAware Approximate
Sat 12:54:00 AM 16.9155 -77.2750 142° Southeast  Level FlightAware Approximate
Sat 12:55:00 AM 16.8104 -77.1902 142° Southeast  Level FlightAware Approximate
Sat 12:56:00 AM 16.7052 -77.1056 142° Southeast  Level FlightAware Approximate
Sat 12:57:00 AM 16.6000 -77.0211 142° Southeast  Level FlightAware Approximate
Sat 12:58:00 AM 16.4947 -76.9367 142° Southeast  Level FlightAware Approximate
Sat 12:59:00 AM 16.3894 -76.8523 142° Southeast  Level FlightAware Approximate
Sat 01:00:00 AM 16.2841 -76.7681 142° Southeast  Level FlightAware Approximate
Sat 01:01:00 AM 16.1787 -76.6839 143° Southeast  Level FlightAware Approximate
Sat 01:02:00 AM 16.0733 -76.5998 143° Southeast  Level FlightAware Approximate
Sat 01:03:00 AM 15.9679 -76.5158 143° Southeast  Level FlightAware Approximate
Sat 01:04:00 AM 15.8624 -76.4319 143° Southeast  Level FlightAware Approximate
Sat 01:05:00 AM 15.7570 -76.3481 143° Southeast  Level FlightAware Approximate
Sat 01:06:00 AM 15.6514 -76.2644 143° Southeast  Level FlightAware Approximate
Sat 01:07:00 AM 15.5459 -76.1808 143° Southeast  Level FlightAware Approximate
Sat 01:08:00 AM 15.4403 -76.0972 143° Southeast  Level FlightAware Approximate
Sat 01:09:00 AM 15.3347 -76.0138 143° Southeast  Level FlightAware Approximate
Sat 01:10:00 AM 15.2292 -75.9305 143° Southeast  Level FlightAware Approximate
Sat 01:11:00 AM 15.1237 -75.8474 143° Southeast  Level FlightAware Approximate
Sat 01:12:00 AM 15.0182 -75.7643 143° Southeast  Level FlightAware Approximate
Sat 01:13:00 AM 14.9125 -75.6815 143° Southeast  Level FlightAware Approximate
Sat 01:14:00 AM 14.8067 -75.5989 143° Southeast  Level FlightAware Approximate
Sat 01:15:00 AM 14.7009 -75.5163 143° Southeast  Level FlightAware Approximate
Sat 01:16:00 AM 14.5951 -75.4339 143° Southeast  Level FlightAware Approximate
Sat 01:17:00 AM 14.4892 -75.3515 143° Southeast  Level FlightAware Approximate
Sat 01:18:00 AM 14.3833 -75.2691 143° Southeast  Level FlightAware Approximate
Sat 01:19:00 AM 14.2774 -75.1869 143° Southeast  Level FlightAware Approximate
Sat 01:20:00 AM 14.1715 -75.1047 143° Southeast  Level FlightAware Approximate
Sat 01:21:00 AM 14.0655 -75.0227 143° Southeast  Level FlightAware Approximate
Sat 01:22:00 AM 13.9595 -74.9406 143° Southeast  Level FlightAware Approximate
Sat 01:23:00 AM 13.8535 -74.8587 143° Southeast  Level FlightAware Approximate
Sat 01:24:00 AM 13.7474 -74.7768 143° Southeast  Level FlightAware Approximate
Sat 01:25:00 AM 13.6413 -74.6951 143° Southeast  Level FlightAware Approximate
Sat 01:26:00 AM 13.5352 -74.6133 143° Southeast  Level FlightAware Approximate
Sat 01:27:00 AM 13.4291 -74.5317 143° Southeast  Level FlightAware Approximate
Sat 01:28:00 AM 13.3229 -74.4501 143° Southeast  Level FlightAware Approximate
Sat 01:29:00 AM 13.2167 -74.3686 143° Southeast  Level FlightAware Approximate
Sat 01:30:00 AM 13.1105 -74.2872 143° Southeast  Level FlightAware Approximate
Sat 01:31:00 AM 13.0043 -74.2058 143° Southeast  Level FlightAware Approximate
Sat 01:32:00 AM 12.8980 -74.1245 143° Southeast  Level FlightAware Approximate
Sat 01:33:00 AM 12.7917 -74.0433 143° Southeast  Level FlightAware Approximate
Sat 01:34:00 AM 12.6854 -73.9622 143° Southeast  Level FlightAware Approximate
Sat 01:35:00 AM 12.5790 -73.8811 143° Southeast  Level FlightAware Approximate
Sat 01:36:00 AM 12.4727 -73.8001 143° Southeast  Level FlightAware Approximate
Sat 01:37:00 AM 12.3661 -73.7190 143° Southeast  Level FlightAware Approximate
Sat 01:38:00 AM 12.2595 -73.6380 143° Southeast  Level FlightAware Approximate
Sat 01:39:00 AM 12.1529 -73.5570 143° Southeast  Level FlightAware Approximate
Sat 01:40:00 AM 12.0462 -73.4761 143° Southeast  Level FlightAware Approximate
Sat 01:41:00 AM 11.9395 -73.3953 143° Southeast  Level FlightAware Approximate
Sat 01:42:00 AM 11.8328 -73.3145 143° Southeast  Level FlightAware Approximate
Sat 01:43:00 AM 11.7261 -73.2338 143° Southeast  Level FlightAware Approximate
Sat 01:44:00 AM 11.6194 -73.1532 143° Southeast  Level FlightAware Approximate
Sat 01:45:00 AM 11.5126 -73.0726 144° Southeast  Level FlightAware Approximate
Sat 01:46:00 AM 11.4058 -72.9921 144° Southeast  Level FlightAware Approximate
Sat 01:47:00 AM 11.2993 -72.9113 143° Southeast  Level FlightAware Approximate
Sat 01:48:00 AM 11.1929 -72.8302 143° Southeast  Level FlightAware Approximate
Sat 01:49:00 AM 11.0866 -72.7492 143° Southeast  Level FlightAware Approximate
Sat 01:50:00 AM 10.9802 -72.6682 143° Southeast  Level FlightAware Approximate
Sat 01:51:00 AM 10.8738 -72.5873 143° Southeast  Level FlightAware Approximate
Sat 01:52:00 AM 10.7674 -72.5064 143° Southeast  Level FlightAware Approximate
Sat 01:53:00 AM 10.6610 -72.4256 143° Southeast  Level FlightAware Approximate
Sat 01:54:00 AM 10.5545 -72.3449 143° Southeast  Level FlightAware Approximate
Sat 01:55:00 AM 10.4481 -72.2642 143° Southeast  Level FlightAware Approximate
Sat 01:56:00 AM 10.3416 -72.1836 143° Southeast  Level FlightAware Approximate
Sat 01:57:00 AM 10.2351 -72.1030 143° Southeast  Level FlightAware Approximate
Sat 01:58:00 AM 10.1285 -72.0225 143° Southeast  Level FlightAware Approximate
Sat 01:59:00 AM 10.0220 -71.9420 143° Southeast  Level FlightAware Approximate
Sat 02:00:00 AM 9.9154 -71.8616 143° Southeast  Level FlightAware Approximate
Sat 02:01:00 AM 9.8087 -71.7814 143° Southeast  Level FlightAware Approximate
Sat 02:02:00 AM 9.7020 -71.7012 143° Southeast  Level FlightAware Approximate
Sat 02:03:00 AM 9.5953 -71.6211 143° Southeast  Level FlightAware Approximate
Sat 02:04:00 AM 9.4885 -71.5410 144° Southeast  Level FlightAware Approximate
Sat 02:05:00 AM 9.3817 -71.4610 144° Southeast  Level FlightAware Approximate
Sat 02:06:00 AM 9.2750 -71.3810 144° Southeast  Level FlightAware Approximate
Sat 02:07:00 AM 9.1681 -71.3011 144° Southeast  Level FlightAware Approximate
Sat 02:08:00 AM 9.0610 -71.2217 144° Southeast  Level FlightAware Approximate
Sat 02:09:00 AM 8.9538 -71.1423 144° Southeast  Level FlightAware Approximate
Sat 02:10:00 AM 8.8466 -71.0630 144° Southeast  Level FlightAware Approximate
Sat 02:11:00 AM 8.7394 -70.9837 144° Southeast  Level FlightAware Approximate
Sat 02:12:00 AM 8.6322 -70.9045 144° Southeast  Level FlightAware Approximate
Sat 02:13:00 AM 8.5250 -70.8253 144° Southeast  Level FlightAware Approximate
Sat 02:14:00 AM 8.4177 -70.7462 144° Southeast  Level FlightAware Approximate
Sat 02:15:00 AM 8.3104 -70.6671 144° Southeast  Level FlightAware Approximate
Sat 02:16:00 AM 8.2031 -70.5880 144° Southeast  Level FlightAware Approximate
Sat 02:17:00 AM 8.0958 -70.5090 144° Southeast  Level FlightAware Approximate
Sat 02:18:00 AM 7.9885 -70.4301 144° Southeast  Level FlightAware Approximate
Sat 02:19:00 AM 7.8812 -70.3511 144° Southeast  Level FlightAware Approximate
Sat 02:20:00 AM 7.7738 -70.2722 144° Southeast  Level FlightAware Approximate
Sat 02:21:00 AM 7.6665 -70.1934 144° Southeast  Level FlightAware Approximate
Sat 02:22:00 AM 7.5591 -70.1146 144° Southeast  Level FlightAware Approximate
Sat 02:23:00 AM 7.4517 -70.0358 144° Southeast  Level FlightAware Approximate
Sat 02:24:00 AM 7.3443 -69.9571 144° Southeast  Level FlightAware Approximate
Sat 02:25:00 AM 7.2369 -69.8784 144° Southeast  Level FlightAware Approximate
Sat 02:26:00 AM 7.1295 -69.7998 144° Southeast  Level FlightAware Approximate
Sat 02:27:00 AM 7.0220 -69.7212 144° Southeast  Level FlightAware Approximate
Sat 02:28:00 AM 6.9146 -69.6426 144° Southeast  Level FlightAware Approximate
Sat 02:29:00 AM 6.8071 -69.5640 144° Southeast  Level FlightAware Approximate
Sat 02:30:00 AM 6.6996 -69.4855 144° Southeast  Level FlightAware Approximate
Sat 02:31:00 AM 6.5921 -69.4071 144° Southeast  Level FlightAware Approximate
Sat 02:32:00 AM 6.4846 -69.3286 144° Southeast  Level FlightAware Approximate
Sat 02:33:00 AM 6.3771 -69.2502 144° Southeast  Level FlightAware Approximate
Sat 02:34:00 AM 6.2696 -69.1718 144° Southeast  Level FlightAware Approximate
Sat 02:35:00 AM 6.1620 -69.0935 144° Southeast  Level FlightAware Approximate
Sat 02:36:00 AM 6.0545 -69.0152 144° Southeast  Level FlightAware Approximate
Sat 02:37:00 AM 5.9469 -68.9369 144° Southeast  Level FlightAware Approximate
Sat 02:38:00 AM 5.8393 -68.8587 144° Southeast  Level FlightAware Approximate
Sat 02:39:00 AM 5.7317 -68.7804 144° Southeast  Level FlightAware Approximate
Sat 02:40:00 AM 5.6241 -68.7022 144° Southeast  Level FlightAware Approximate
Sat 02:41:00 AM 5.5165 -68.6241 144° Southeast  Level FlightAware Approximate
Sat 02:42:00 AM 5.4090 -68.5459 144° Southeast  Level FlightAware Approximate
Sat 02:43:00 AM 5.3015 -68.4676 144° Southeast  Level FlightAware Approximate
Sat 02:44:00 AM 5.1940 -68.3894 144° Southeast  Level FlightAware Approximate
Sat 02:45:00 AM 5.0864 -68.3111 144° Southeast  Level FlightAware Approximate
Sat 02:46:00 AM 4.9789 -68.2329 144° Southeast  Level FlightAware Approximate
Sat 02:47:00 AM 4.8713 -68.1548 144° Southeast  Level FlightAware Approximate
Sat 02:48:00 AM 4.7638 -68.0766 144° Southeast  Level FlightAware Approximate
Sat 02:49:00 AM 4.6562 -67.9985 144° Southeast  Level FlightAware Approximate
Sat 02:50:00 AM 4.5487 -67.9204 144° Southeast  Level FlightAware Approximate
Sat 02:51:00 AM 4.4411 -67.8424 144° Southeast  Level FlightAware Approximate
Sat 02:52:00 AM 4.3335 -67.7643 144° Southeast  Level FlightAware Approximate
Sat 02:53:00 AM 4.2259 -67.6863 144° Southeast  Level FlightAware Approximate
Sat 02:54:00 AM 4.1183 -67.6083 144° Southeast  Level FlightAware Approximate
Sat 02:55:00 AM 4.0107 -67.5303 144° Southeast  Level FlightAware Approximate
Sat 02:56:00 AM 3.9031 -67.4524 144° Southeast  Level FlightAware Approximate
Sat 02:57:00 AM 3.7954 -67.3744 144° Southeast  Level FlightAware Approximate
Sat 02:58:00 AM 3.6878 -67.2965 144° Southeast  Level FlightAware Approximate
Sat 02:59:00 AM 3.5802 -67.2186 144° Southeast  Level FlightAware Approximate
Sat 03:00:00 AM 3.4725 -67.1407 144° Southeast  Level FlightAware Approximate
Sat 03:01:00 AM 3.3649 -67.0629 144° Southeast  Level FlightAware Approximate
Sat 03:02:00 AM 3.2572 -66.9850 144° Southeast  Level FlightAware Approximate
Sat 03:03:00 AM 3.1495 -66.9072 144° Southeast  Level FlightAware Approximate
Sat 03:04:00 AM 3.0419 -66.8294 144° Southeast  Level FlightAware Approximate
Sat 03:05:00 AM 2.9342 -66.7516 144° Southeast  Level FlightAware Approximate
Sat 03:06:00 AM 2.8265 -66.6738 144° Southeast  Level FlightAware Approximate
Sat 03:07:00 AM 2.7188 -66.5960 144° Southeast  Level FlightAware Approximate
Sat 03:08:00 AM 2.6111 -66.5183 144° Southeast  Level FlightAware Approximate
Sat 03:09:00 AM 2.5034 -66.4405 144° Southeast  Level FlightAware Approximate
Sat 03:10:00 AM 2.3959 -66.3629 144° Southeast  Level FlightAware Approximate
Sat 03:11:00 AM 2.2884 -66.2854 144° Southeast  Level FlightAware Approximate
Sat 03:12:00 AM 2.1809 -66.2078 144° Southeast  Level FlightAware Approximate
Sat 03:13:00 AM 2.0734 -66.1302 144° Southeast  Level FlightAware Approximate
Sat 03:14:00 AM 1.9658 -66.0527 144° Southeast  Level FlightAware Approximate
Sat 03:15:00 AM 1.8583 -65.9751 144° Southeast  Level FlightAware Approximate
Sat 03:16:00 AM 1.7508 -65.8976 144° Southeast  Level FlightAware Approximate
Sat 03:17:00 AM 1.6432 -65.8201 144° Southeast  Level FlightAware Approximate
Sat 03:18:00 AM 1.5357 -65.7426 144° Southeast  Level FlightAware Approximate
Sat 03:19:00 AM 1.4281 -65.6651 144° Southeast  Level FlightAware Approximate
Sat 03:20:00 AM 1.3206 -65.5876 144° Southeast  Level FlightAware Approximate
Sat 03:21:00 AM 1.2130 -65.5101 144° Southeast  Level FlightAware Approximate
Sat 03:22:00 AM 1.1055 -65.4326 144° Southeast  Level FlightAware Approximate
Sat 03:23:00 AM 0.9979 -65.3551 144° Southeast  Level FlightAware Approximate
Sat 03:24:00 AM 0.8904 -65.2777 144° Southeast  Level FlightAware Approximate
Sat 03:25:00 AM 0.7828 -65.2002 144° Southeast  Level FlightAware Approximate
Sat 03:26:00 AM 0.6753 -65.1227 144° Southeast  Level FlightAware Approximate
Sat 03:27:00 AM 0.5677 -65.0453 144° Southeast  Level FlightAware Approximate
Sat 03:28:00 AM 0.4601 -64.9678 144° Southeast  Level FlightAware Approximate
Sat 03:29:00 AM 0.3526 -64.8904 144° Southeast  Level FlightAware Approximate
Sat 03:30:00 AM 0.2450 -64.8129 144° Southeast  Level FlightAware Approximate
Sat 03:31:00 AM 0.1375 -64.7355 144° Southeast  Level FlightAware Approximate
Sat 03:32:00 AM 0.0299 -64.6580 144° Southeast  Level FlightAware Approximate
Sat 03:33:00 AM -0.0777 -64.5806 144° Southeast  Level FlightAware Approximate
Sat 03:34:00 AM -0.1852 -64.5031 144° Southeast  Level FlightAware Approximate
Sat 03:35:00 AM -0.2928 -64.4257 144° Southeast  Level FlightAware Approximate
Sat 03:36:00 AM -0.4003 -64.3482 144° Southeast  Level FlightAware Approximate
Sat 03:37:00 AM -0.5079 -64.2708 144° Southeast  Level FlightAware Approximate
Sat 03:38:00 AM -0.6155 -64.1933 144° Southeast  Level FlightAware Approximate
Sat 03:39:00 AM -0.7230 -64.1158 144° Southeast  Level FlightAware Approximate
Sat 03:40:00 AM -0.8306 -64.0384 144° Southeast  Level FlightAware Approximate
Sat 03:41:00 AM -0.9381 -63.9609 144° Southeast  Level FlightAware Approximate
Sat 03:42:00 AM -1.0457 -63.8834 144° Southeast  Level FlightAware Approximate
Sat 03:43:00 AM -1.1532 -63.8060 144° Southeast  Level FlightAware Approximate
Sat 03:44:00 AM -1.2608 -63.7285 144° Southeast  Level FlightAware Approximate
Sat 03:45:00 AM -1.3683 -63.6510 144° Southeast  Level FlightAware Approximate
Sat 03:46:00 AM -1.4759 -63.5735 144° Southeast  Level FlightAware Approximate
Sat 03:47:00 AM -1.5834 -63.4960 144° Southeast  Level FlightAware Approximate
Sat 03:48:00 AM -1.6910 -63.4185 144° Southeast  Level FlightAware Approximate
Sat 03:49:00 AM -1.7985 -63.3410 144° Southeast  Level FlightAware Approximate
Sat 03:50:00 AM -1.9060 -63.2634 144° Southeast  Level FlightAware Approximate
Sat 03:51:00 AM -2.0136 -63.1859 144° Southeast  Level FlightAware Approximate
Sat 03:52:00 AM -2.1211 -63.1083 144° Southeast  Level FlightAware Approximate
Sat 03:53:00 AM -2.2286 -63.0308 144° Southeast  Level FlightAware Approximate
Sat 03:54:00 AM -2.3361 -62.9532 144° Southeast  Level FlightAware Approximate
Sat 03:55:00 AM -2.4437 -62.8756 144° Southeast  Level FlightAware Approximate
Sat 03:56:00 AM -2.5512 -62.7980 144° Southeast  Level FlightAware Approximate
Sat 03:57:00 AM -2.6587 -62.7204 144° Southeast  Level FlightAware Approximate
Sat 03:58:00 AM -2.7662 -62.6428 144° Southeast  Level FlightAware Approximate
Sat 03:59:00 AM -2.8737 -62.5651 144° Southeast  Level FlightAware Approximate
Sat 04:00:00 AM -2.9812 -62.4875 144° Southeast  Level FlightAware Approximate
Sat 04:01:00 AM -3.0886 -62.4098 144° Southeast  Level FlightAware Approximate
Sat 04:02:00 AM -3.1961 -62.3321 144° Southeast  Level FlightAware Approximate
Sat 04:03:00 AM -3.3036 -62.2544 144° Southeast  Level FlightAware Approximate
Sat 04:04:00 AM -3.4111 -62.1767 144° Southeast  Level FlightAware Approximate
Sat 04:05:00 AM -3.5185 -62.0990 144° Southeast  Level FlightAware Approximate
Sat 04:06:00 AM -3.6260 -62.0212 144° Southeast  Level FlightAware Approximate
Sat 04:07:00 AM -3.7334 -61.9435 144° Southeast  Level FlightAware Approximate
Sat 04:08:00 AM -3.8409 -61.8657 144° Southeast  Level FlightAware Approximate
Sat 04:09:00 AM -3.9483 -61.7879 144° Southeast  Level FlightAware Approximate
Sat 04:10:00 AM -4.0557 -61.7100 144° Southeast  Level FlightAware Approximate
Sat 04:11:00 AM -4.1631 -61.6322 144° Southeast  Level FlightAware Approximate
Sat 04:12:00 AM -4.2705 -61.5543 144° Southeast  Level FlightAware Approximate
Sat 04:13:00 AM -4.3780 -61.4764 144° Southeast  Level FlightAware Approximate
Sat 04:14:00 AM -4.4854 -61.3985 144° Southeast  Level FlightAware Approximate
Sat 04:15:00 AM -4.5927 -61.3206 144° Southeast  Level FlightAware Approximate
Sat 04:16:00 AM -4.7001 -61.2426 144° Southeast  Level FlightAware Approximate
Sat 04:17:00 AM -4.8075 -61.1646 144° Southeast  Level FlightAware Approximate
Sat 04:18:00 AM -4.9149 -61.0866 144° Southeast  Level FlightAware Approximate
Sat 04:19:00 AM -5.0222 -61.0086 144° Southeast  Level FlightAware Approximate
Sat 04:20:00 AM -5.1295 -60.9305 144° Southeast  Level FlightAware Approximate
Sat 04:21:00 AM -5.2369 -60.8524 144° Southeast  Level FlightAware Approximate
Sat 04:22:00 AM -5.3442 -60.7743 144° Southeast  Level FlightAware Approximate
Sat 04:23:00 AM -5.4515 -60.6962 144° Southeast  Level FlightAware Approximate
Sat 04:24:00 AM -5.5588 -60.6180 144° Southeast  Level FlightAware Approximate
Sat 04:25:00 AM -5.6661 -60.5398 144° Southeast  Level FlightAware Approximate
Sat 04:26:00 AM -5.7734 -60.4616 144° Southeast  Level FlightAware Approximate
Sat 04:27:00 AM -5.8806 -60.3833 144° Southeast  Level FlightAware Approximate
Sat 04:28:00 AM -5.9879 -60.3050 144° Southeast  Level FlightAware Approximate
Sat 04:29:00 AM -6.0951 -60.2267 144° Southeast  Level FlightAware Approximate
Sat 04:30:00 AM -6.2024 -60.1483 144° Southeast  Level FlightAware Approximate
Sat 04:31:00 AM -6.3096 -60.0700 144° Southeast  Level FlightAware Approximate
Sat 04:32:00 AM -6.4168 -59.9916 144° Southeast  Level FlightAware Approximate
Sat 04:33:00 AM -6.5240 -59.9131 144° Southeast  Level FlightAware Approximate
Sat 04:34:00 AM -6.6312 -59.8346 144° Southeast  Level FlightAware Approximate
Sat 04:35:00 AM -6.7384 -59.7561 144° Southeast  Level FlightAware Approximate
Sat 04:36:00 AM -6.8456 -59.6776 144° Southeast  Level FlightAware Approximate
Sat 04:37:00 AM -6.9527 -59.5990 144° Southeast  Level FlightAware Approximate
Sat 04:38:00 AM -7.0599 -59.5204 144° Southeast  Level FlightAware Approximate
Sat 04:39:00 AM -7.1670 -59.4417 144° Southeast  Level FlightAware Approximate
Sat 04:40:00 AM -7.2741 -59.3630 144° Southeast  Level FlightAware Approximate
Sat 04:41:00 AM -7.3812 -59.2843 144° Southeast  Level FlightAware Approximate
Sat 04:42:00 AM -7.4883 -59.2055 144° Southeast  Level FlightAware Approximate
Sat 04:43:00 AM -7.5954 -59.1267 144° Southeast  Level FlightAware Approximate
Sat 04:44:00 AM -7.7024 -59.0479 144° Southeast  Level FlightAware Approximate
Sat 04:45:00 AM -7.8095 -58.9690 144° Southeast  Level FlightAware Approximate
Sat 04:46:00 AM -7.9165 -58.8900 144° Southeast  Level FlightAware Approximate
Sat 04:47:00 AM -8.0235 -58.8111 144° Southeast  Level FlightAware Approximate
Sat 04:48:00 AM -8.1305 -58.7321 144° Southeast  Level FlightAware Approximate
Sat 04:49:00 AM -8.2375 -58.6530 144° Southeast  Level FlightAware Approximate
Sat 04:50:00 AM -8.3445 -58.5739 144° Southeast  Level FlightAware Approximate
Sat 04:51:00 AM -8.4514 -58.4948 144° Southeast  Level FlightAware Approximate
Sat 04:52:00 AM -8.5584 -58.4156 144° Southeast  Level FlightAware Approximate
Sat 04:53:00 AM -8.6653 -58.3364 144° Southeast  Level FlightAware Approximate
Sat 04:54:00 AM -8.7722 -58.2571 144° Southeast  Level FlightAware Approximate
Sat 04:55:00 AM -8.8791 -58.1778 144° Southeast  Level FlightAware Approximate
Sat 04:56:00 AM -8.9860 -58.0984 144° Southeast  Level FlightAware Approximate
Sat 04:57:00 AM -9.0928 -58.0190 144° Southeast  Level FlightAware Approximate
Sat 04:58:00 AM -9.1996 -57.9395 144° Southeast  Level FlightAware Approximate
Sat 04:59:00 AM -9.3065 -57.8600 144° Southeast  Level FlightAware Approximate
Sat 05:00:00 AM -9.4133 -57.7805 144° Southeast  Level FlightAware Approximate
Sat 05:01:00 AM -9.5201 -57.7009 144° Southeast  Level FlightAware Approximate
Sat 05:02:00 AM -9.6268 -57.6212 144° Southeast  Level FlightAware Approximate
Sat 05:03:00 AM -9.7336 -57.5415 144° Southeast  Level FlightAware Approximate
Sat 05:04:00 AM -9.8403 -57.4618 144° Southeast  Level FlightAware Approximate
Sat 05:05:00 AM -9.9470 -57.3820 144° Southeast  Level FlightAware Approximate
Sat 05:06:00 AM -10.0537 -57.3021 144° Southeast  Level FlightAware Approximate
Sat 05:07:00 AM -10.1604 -57.2222 144° Southeast  Level FlightAware Approximate
Sat 05:08:00 AM -10.2670 -57.1422 144° Southeast  Level FlightAware Approximate
Sat 05:09:00 AM -10.3737 -57.0622 144° Southeast  Level FlightAware Approximate
Sat 05:10:00 AM -10.4803 -56.9822 144° Southeast  Level FlightAware Approximate
Sat 05:11:00 AM -10.5869 -56.9020 144° Southeast  Level FlightAware Approximate
Sat 05:12:00 AM -10.6934 -56.8218 144° Southeast  Level FlightAware Approximate
Sat 05:13:00 AM -10.8000 -56.7416 144° Southeast  Level FlightAware Approximate
Sat 05:14:00 AM -10.9065 -56.6613 143° Southeast  Level FlightAware Approximate
Sat 05:15:00 AM -11.0130 -56.5810 143° Southeast  Level FlightAware Approximate
Sat 05:16:00 AM -11.1197 -56.5004 143° Southeast  Level FlightAware Approximate
Sat 05:17:00 AM -11.2264 -56.4198 143° Southeast  Level FlightAware Approximate
Sat 05:18:00 AM -11.3330 -56.3391 143° Southeast  Level FlightAware Approximate
Sat 05:19:00 AM -11.4396 -56.2584 143° Southeast  Level FlightAware Approximate
Sat 05:20:00 AM -11.5462 -56.1776 143° Southeast  Level FlightAware Approximate
Sat 05:21:00 AM -11.6528 -56.0967 143° Southeast  Level FlightAware Approximate
Sat 05:22:00 AM -11.7593 -56.0158 143° Southeast  Level FlightAware Approximate
Sat 05:23:00 AM -11.8658 -55.9348 143° Southeast  Level FlightAware Approximate
Sat 05:24:00 AM -11.9723 -55.8538 143° Southeast  Level FlightAware Approximate
Sat 05:25:00 AM -12.0788 -55.7727 143° Southeast  Level FlightAware Approximate
Sat 05:26:00 AM -12.1853 -55.6915 143° Southeast  Level FlightAware Approximate
Sat 05:27:00 AM -12.2917 -55.6103 143° Southeast  Level FlightAware Approximate
Sat 05:28:00 AM -12.3981 -55.5290 143° Southeast  Level FlightAware Approximate
Sat 05:29:00 AM -12.5045 -55.4476 143° Southeast  Level FlightAware Approximate
Sat 05:30:00 AM -12.6109 -55.3662 143° Southeast  Level FlightAware Approximate
Sat 05:31:00 AM -12.7172 -55.2847 143° Southeast  Level FlightAware Approximate
Sat 05:32:00 AM -12.8235 -55.2031 143° Southeast  Level FlightAware Approximate
Sat 05:33:00 AM -12.9298 -55.1214 143° Southeast  Level FlightAware Approximate
Sat 05:34:00 AM -13.0360 -55.0397 143° Southeast  Level FlightAware Approximate
Sat 05:35:00 AM -13.1423 -54.9580 143° Southeast  Level FlightAware Approximate
Sat 05:36:00 AM -13.2485 -54.8761 143° Southeast  Level FlightAware Approximate
Sat 05:37:00 AM -13.3546 -54.7942 143° Southeast  Level FlightAware Approximate
Sat 05:38:00 AM -13.4608 -54.7122 143° Southeast  Level FlightAware Approximate
Sat 05:39:00 AM -13.5671 -54.6300 143° Southeast  Level FlightAware Approximate
Sat 05:40:00 AM -13.6734 -54.5477 143° Southeast  Level FlightAware Approximate
Sat 05:41:00 AM -13.7797 -54.4653 143° Southeast  Level FlightAware Approximate
Sat 05:42:00 AM -13.8859 -54.3829 143° Southeast  Level FlightAware Approximate
Sat 05:43:00 AM -13.9921 -54.3004 143° Southeast  Level FlightAware Approximate
Sat 05:44:00 AM -14.0983 -54.2178 143° Southeast  Level FlightAware Approximate
Sat 05:45:00 AM -14.2044 -54.1351 143° Southeast  Level FlightAware Approximate
Sat 05:46:00 AM -14.3106 -54.0524 143° Southeast  Level FlightAware Approximate
Sat 05:47:00 AM -14.4166 -53.9696 143° Southeast  Level FlightAware Approximate
Sat 05:48:00 AM -14.5227 -53.8867 143° Southeast  Level FlightAware Approximate
Sat 05:49:00 AM -14.6287 -53.8037 143° Southeast  Level FlightAware Approximate
Sat 05:50:00 AM -14.7348 -53.7206 143° Southeast  Level FlightAware Approximate
Sat 05:51:00 AM -14.8407 -53.6375 143° Southeast  Level FlightAware Approximate
Sat 05:52:00 AM -14.9467 -53.5543 143° Southeast  Level FlightAware Approximate
Sat 05:53:00 AM -15.0526 -53.4710 143° Southeast  Level FlightAware Approximate
Sat 05:54:00 AM -15.1585 -53.3876 143° Southeast  Level FlightAware Approximate
Sat 05:55:00 AM -15.2644 -53.3041 143° Southeast  Level FlightAware Approximate
Sat 05:56:00 AM -15.3702 -53.2205 143° Southeast  Level FlightAware Approximate
Sat 05:57:00 AM -15.4760 -53.1369 143° Southeast  Level FlightAware Approximate
Sat 05:58:00 AM -15.5817 -53.0532 143° Southeast  Level FlightAware Approximate
Sat 05:59:00 AM -15.6875 -52.9693 143° Southeast  Level FlightAware Approximate
Sat 06:00:00 AM -15.7932 -52.8854 143° Southeast  Level FlightAware Approximate
Sat 06:01:00 AM -15.8988 -52.8015 143° Southeast  Level FlightAware Approximate
Sat 06:02:00 AM -16.0045 -52.7174 143° Southeast  Level FlightAware Approximate
Sat 06:03:00 AM -16.1101 -52.6332 143° Southeast  Level FlightAware Approximate
Sat 06:04:00 AM -16.2156 -52.5490 143° Southeast  Level FlightAware Approximate
Sat 06:05:00 AM -16.3212 -52.4646 143° Southeast  Level FlightAware Approximate
Sat 06:06:00 AM -16.4267 -52.3802 142° Southeast  Level FlightAware Approximate
Sat 06:07:00 AM -16.5321 -52.2957 142° Southeast  Level FlightAware Approximate
Sat 06:08:00 AM -16.6376 -52.2110 142° Southeast  Level FlightAware Approximate
Sat 06:09:00 AM -16.7430 -52.1263 142° Southeast  Level FlightAware Approximate
Sat 06:10:00 AM -16.8483 -52.0415 142° Southeast  Level FlightAware Approximate
Sat 06:11:00 AM -16.9536 -51.9566 142° Southeast  Level FlightAware Approximate
Sat 06:11:47 AM -18.6300 -50.1760 142° Southeast 487 560 37,000  Level FlightAware ADS-B
Sat 06:12:00 AM -17.0589 -51.8716 142° Southeast  Level FlightAware Approximate
Sat 06:12:27 AM -18.6900 -50.1270 142° Southeast 487 560 37,000  Level FlightAware ADS-B
Sat 06:13:07 AM -18.7510 -50.0770 142° Southeast 487 560 37,000  Level FlightAware ADS-B
Sat 06:13:47 AM -18.8110 -50.0270 142° Southeast 487 560 37,000  Level FlightAware ADS-B
Sat 06:14:37 AM -18.8860 -49.9650 142° Southeast 487 560 37,000  Level FlightAware ADS-B
Sat 06:15:17 AM -18.9470 -49.9150 142° Southeast 487 560 37,000  Level FlightAware ADS-B
Sat 06:15:57 AM -19.0070 -49.8650 142° Southeast 487 560 37,000  Level FlightAware ADS-B
Sat 06:16:37 AM -19.0680 -49.8150 142° Southeast 487 560 37,000  Level FlightAware ADS-B
Sat 06:17:22 AM -19.2300 -49.6880 143° Southeast 490 564 37,000  Level FlightAware ADS-B
Sat 06:18:07 AM -19.3030 -49.6250 141° Southeast 490 564 37,000  Level FlightAware ADS-B
Sat 06:18:47 AM -19.3630 -49.5740 141° Southeast 490 564 37,000  Level FlightAware ADS-B
Sat 06:19:27 AM -19.4230 -49.5220 141° Southeast 490 564 37,000  Level FlightAware ADS-B
Sat 06:20:07 AM -19.4830 -49.4710 141° Southeast 490 564 37,000  Level FlightAware ADS-B
Sat 06:20:47 AM -19.5880 -49.3870 143° Southeast 491 565 37,000  Level FlightAware ADS-B
Sat 06:21:32 AM -19.6660 -49.3210 141° Southeast 491 565 37,000  Level FlightAware ADS-B
Sat 06:22:12 AM -19.7430 -49.2560 142° Southeast 492 566 37,000  Level FlightAware ADS-B
Sat 06:22:57 AM -19.8240 -49.1870 141° Southeast 492 566 37,000  Level FlightAware ADS-B
Sat 06:23:37 AM -19.8890 -49.1320 141° Southeast 493 567 37,000  Level FlightAware ADS-B
Sat 06:24:17 AM -19.9660 -49.0670 142° Southeast 494 568 37,000  Level FlightAware ADS-B
Sat 06:24:57 AM -20.0370 -49.0070 142° Southeast 494 568 37,000  Level FlightAware ADS-B
Sat 06:25:37 AM -20.1080 -48.9470 142° Southeast 495 570 37,000  Level FlightAware ADS-B
Sat 06:26:42 AM -20.2250 -48.8460 141° Southeast 495 570 37,000  Level FlightAware ADS-B
Sat 06:27:17 AM -20.2880 -48.7930 142° Southeast 496 571 37,000  Level FlightAware ADS-B
Sat 06:27:57 AM -20.3670 -48.7400 148° Southeast 493 567 37,000  Level FlightAware ADS-B
Sat 06:28:42 AM -20.4650 -48.6870 153° Southeast 492 566 37,000  Level FlightAware ADS-B
Sat 06:29:32 AM -20.5510 -48.6410 153° Southeast 493 567 37,000  Level FlightAware ADS-B
Sat 06:30:12 AM -20.6420 -48.5930 154° Southeast 493 567 37,000  Level FlightAware ADS-B
Sat 06:30:52 AM -20.7270 -48.5470 153° Southeast 493 567 37,000  Level FlightAware ADS-B
Sat 06:31:32 AM -20.8000 -48.5080 153° Southeast 494 568 37,000  Level FlightAware ADS-B
Sat 06:32:12 AM -20.8820 -48.4640 153° Southeast 494 568 37,000  Level FlightAware ADS-B
Sat 06:32:52 AM -20.9620 -48.4210 153° Southeast 495 570 37,000  Level FlightAware ADS-B
Sat 06:33:42 AM -21.0720 -48.3620 153° Southeast 496 571 37,000  Level FlightAware ADS-B
Sat 06:34:22 AM -21.1440 -48.3020 142° Southeast 499 574 37,000  Level FlightAware ADS-B
Sat 06:35:02 AM -21.2030 -48.2360 134° Southeast 500 575 37,000  Level FlightAware ADS-B
Sat 06:35:42 AM -21.2720 -48.1570 133° Southeast 500 575 37,000  Level FlightAware ADS-B
Sat 06:36:22 AM -21.3380 -48.0820 133° Southeast 500 575 37,000  Level FlightAware ADS-B
Sat 06:37:12 AM -21.4210 -47.9870 133° Southeast 500 575 37,000  Level FlightAware ADS-B
Sat 06:37:57 AM -21.4900 -47.9090 134° Southeast 500 575 37,000  Level FlightAware ADS-B
Sat 06:38:27 AM -21.5360 -47.8570 134° Southeast 495 570 37,000  Level FlightAware ADS-B
Sat 06:39:17 AM -21.6180 -47.7640 133° Southeast 496 571 37,000  Level FlightAware ADS-B
Sat 06:40:02 AM -21.6910 -47.6820 134° Southeast 498 573 37,000  Level FlightAware ADS-B
Sat 06:40:42 AM -21.7560 -47.6070 133° Southeast 499 574 37,000  Level FlightAware ADS-B
Sat 06:41:27 AM -21.8270 -47.5260 133° Southeast 498 573 37,000  Level FlightAware ADS-B
Sat 06:42:07 AM -21.8900 -47.4540 133° Southeast 499 574 37,000  Level FlightAware ADS-B
Sat 06:42:52 AM -21.9630 -47.3710 133° Southeast 496 571 37,000 -776 Level FlightAware ADS-B
Sat 06:43:32 AM -22.0410 -47.3210 149° Southeast 486 559 35,900 -2,850 Descending FlightAware ADS-B
Sat 06:44:12 AM -22.1300 -47.2840 159° South 512 589 33,200 -3,185 Descending FlightAware ADS-B
Sat 06:45:42 AM -22.3220 -47.2060 159° South 501 577 29,000 -2,691 Descending FlightAware ADS-B
Sat 06:46:57 AM -22.4800 -47.1390 159° South 483 556 25,800 -3,280 Descending FlightAware ADS-B
Sat 06:48:12 AM -22.6370 -47.0720 159° South 451 519 20,800 -2,855 Descending FlightAware ADS-B
Sat 06:49:22 AM -22.7660 -47.0190 159° South 384 442 18,900 -1,800 Descending FlightAware ADS-B
Sat 06:50:02 AM -22.8320 -46.9910 159° South 361 415 17,500 -1,624 Descending FlightAware ADS-B
Sat 06:50:47 AM -22.8980 -46.9630 159° South 314 361 16,600 -1,341 Descending FlightAware ADS-B
Sat 06:51:27 AM -22.9510 -46.9410 159° South 296 341 15,600 -1,650 Descending FlightAware ADS-B
Sat 06:52:07 AM -23.0010 -46.9200 159° South 292 336 14,400 -1,976 Descending FlightAware ADS-B
Sat 06:52:52 AM -23.0570 -46.8960 158° South 280 322 12,800 -2,188 Descending FlightAware ADS-B
Sat 06:53:32 AM -23.1070 -46.8750 159° South 274 315 11,300 -2,047 Descending FlightAware ADS-B
Sat 06:54:17 AM -23.1590 -46.8530 159° South 244 281 9,900 -1,971 Descending FlightAware ADS-B
Sat 06:54:42 AM -23.1850 -46.8420 159° South 242 278 9,000 -1,636 Descending FlightAware ADS-B
Sat 06:55:12 AM -23.2180 -46.8280 159° South 243 280 8,400 -1,200 Descending FlightAware ADS-B
Sat 06:55:27 AM -23.2340 -46.8210 158° South 243 280 8,100 -1,050 Descending FlightAware ADS-B
Sat 06:55:52 AM -23.2600 -46.8100 159° South 229 264 7,700 -600 Descending FlightAware ADS-B
Sat 06:56:17 AM -23.2850 -46.8000 160° South 206 237 7,600 -750 Descending FlightAware ADS-B
Sat 06:56:32 AM -23.2980 -46.7940 157° South 209 241 7,200 -800 Descending FlightAware ADS-B
Sat 06:57:02 AM -23.3260 -46.7810 157° South 219 252 7,000 -100 Descending FlightAware ADS-B
Sat 06:57:32 AM -23.3540 -46.7660 154° Southeast 212 244 7,100  Climbing FlightAware ADS-B
Sat 06:57:57 AM -23.3780 -46.7560 159° South 221 254 7,000 -655 Descending FlightAware ADS-B
Sat 06:58:27 AM -23.4030 -46.7390 148° Southeast 217 250 6,500 -1,200 Descending FlightAware ADS-B
Sat 06:58:57 AM -23.4240 -46.7160 135° Southeast 200 230 5,800 -1,418 Descending FlightAware ADS-B
Sat 06:59:22 AM -23.4400 -46.6990 136° Southeast 199 229 5,200 -1,200 Descending FlightAware ADS-B
Sat 06:59:37 AM -23.4490 -46.6870 129° Southeast 201 231 5,000 -533 Descending FlightAware ADS-B
Sat 07:00:07 AM -23.4620 -46.6590 117° Southeast 197 227 4,800 -327 Descending FlightAware ADS-B
Sat 07:00:32 AM -23.4710 -46.6380 115° Southeast 188 216 4,700 -300 Descending FlightAware ADS-B
Sat 07:00:47 AM -23.4740 -46.6240 103° East 185 213 4,600 -533 Descending FlightAware ADS-B
Sat 07:01:17 AM -23.4680 -46.5960 77° East 191 220 4,300 -667 Descending FlightAware ADS-B
Sat 07:01:32 AM -23.4650 -46.5840 75° East 185 213 4,100 -900 Descending FlightAware ADS-B
Sat 07:01:57 AM -23.4590 -46.5620 73° East 164 189 3,700 -873 Descending FlightAware ADS-B
Sat 07:02:27 AM -23.4530 -46.5390 74° East 147 169 3,300 -764 Descending FlightAware ADS-B
Sat 07:02:52 AM -23.4480 -46.5210 73° East 148 170 3,000 -750 Descending FlightAware ADS-B
Sat 07:03:07 AM -23.4450 -46.5100 73° East 142 163 2,800 -800 Descending FlightAware ADS-B
Sat 07:03:37 AM -23.4400 -46.4900 75° East 139 160 2,400 -429 Descending FlightAware ADS-B
Sat 07:04:17 AM -23.4340 -46.4670 74° East 139 160 2,300 -150 Descending FlightAware ADS-B

Login

Don't have an account? Register now (free) for customized features, flight alerts, and more!